Terminal Aerodrome Forecast
Issued by NWS

Home | Current Version | Previous Version | Text Only | Print | Product List | Glossary On
Versions: 1 2 3 4 5 6 7 8 9 10 11 12 13 14 15 16 17 18 19 20 21
234
FTUS43 KAPX 100525
TAFAPN
TAF
KAPN 100525Z 1006/1106 32010KT 2SM -SN OVC022
     FM101400 33011G16KT 3SM -SN OVC025
     FM101700 32012G19KT P6SM VCSH BKN035
     FM110100 32008KT P6SM SCT025=

USA.gov is the U.S. government's official web portal to all federal, state and local government web resources and services.